createdAt,value
2018-03-25T00:00:17.873Z,20.30
2018-03-25T00:02:46.591Z,19.32
2018-03-25T00:05:16.056Z,20.28
2018-03-25T00:07:44.311Z,20.86
2018-03-25T00:10:12.601Z,24.44
2018-03-25T00:12:40.854Z,23.64
2018-03-25T00:15:09.130Z,23.06
2018-03-25T00:17:37.414Z,21.80
2018-03-25T00:20:05.703Z,21.64
2018-03-25T00:22:33.991Z,23.56
2018-03-25T00:25:05.434Z,22.06
2018-03-25T00:27:33.713Z,23.00
2018-03-25T00:30:01.975Z,22.74
2018-03-25T00:32:30.524Z,21.52
2018-03-25T00:34:59.754Z,22.72
2018-03-25T00:37:28.038Z,24.22
2018-03-25T00:39:56.317Z,23.38
2018-03-25T00:42:24.619Z,24.50
2018-03-25T00:44:55.782Z,24.92
2018-03-25T00:47:24.063Z,23.82
2018-03-25T00:49:52.313Z,23.62
2018-03-25T00:52:20.598Z,22.06
2018-03-25T00:54:52.043Z,22.56
2018-03-25T00:57:20.290Z,22.02
2018-03-25T00:59:48.575Z,21.32
2018-03-25T01:02:16.853Z,22.76
2018-03-25T01:04:46.486Z,21.66
2018-03-25T01:07:15.914Z,22.10
2018-03-25T01:09:44.165Z,21.24
2018-03-25T01:12:12.420Z,21.02
2018-03-25T01:14:40.710Z,20.14
2018-03-25T01:17:08.957Z,22.82
2018-03-25T01:19:37.237Z,22.42
2018-03-25T01:22:05.497Z,20.86
2018-03-25T01:24:33.781Z,22.62
2018-03-25T01:27:02.034Z,23.32
2018-03-25T01:29:30.338Z,22.36
2018-03-25T01:31:58.589Z,22.82
2018-03-25T01:34:26.850Z,20.14
2018-03-25T01:36:55.130Z,19.94
2018-03-25T01:39:23.386Z,20.90
2018-03-25T01:41:50.902Z,21.12
2018-03-25T01:44:19.157Z,23.18
2018-03-25T01:46:47.434Z,19.52
2018-03-25T01:49:16.294Z,21.10
2018-03-25T01:51:44.577Z,19.48
2018-03-25T01:54:12.825Z,19.88
2018-03-25T01:56:41.110Z,19.52
2018-03-25T01:59:09.390Z,21.58
2018-03-25T02:01:37.644Z,20.90
2018-03-25T02:04:05.947Z,17.02
2018-03-25T02:06:34.206Z,18.30
2018-03-25T02:09:02.465Z,21.04
2018-03-25T02:11:30.763Z,22.36
2018-03-25T02:13:59.018Z,19.22
2018-03-25T02:16:26.513Z,20.84
2018-03-25T02:18:54.778Z,19.48
2018-03-25T02:21:23.070Z,20.98
2018-03-25T02:23:51.326Z,21.70
2018-03-25T02:26:18.854Z,19.34
2018-03-25T02:28:47.114Z,20.30
2018-03-25T02:31:16.332Z,20.70
2018-03-25T02:33:44.600Z,20.86
2018-03-25T02:36:12.896Z,21.46
2018-03-25T02:38:41.175Z,19.56
2018-03-25T02:41:09.464Z,21.86
2018-03-25T02:43:37.719Z,21.14
2018-03-25T02:46:06.016Z,21.08
2018-03-25T02:48:34.317Z,19.46
2018-03-25T02:51:02.599Z,18.58
2018-03-25T02:53:30.862Z,20.72
2018-03-25T02:55:59.142Z,20.14
2018-03-25T02:58:27.394Z,19.04
2018-03-25T03:00:55.685Z,20.12
2018-03-25T03:03:23.951Z,20.00
2018-03-25T03:05:52.248Z,22.78
2018-03-25T03:08:19.735Z,23.70
2018-03-25T03:10:48.019Z,23.60
2018-03-25T03:13:17.532Z,22.64
2018-03-25T03:15:46.798Z,23.50
2018-03-25T03:18:16.483Z,24.32
2018-03-25T03:20:45.761Z,21.80
2018-03-25T03:23:14.056Z,24.60
2018-03-25T03:25:41.556Z,20.12
2018-03-25T03:28:09.836Z,22.90
2018-03-25T03:30:38.088Z,21.66
2018-03-25T03:33:06.369Z,22.14
2018-03-25T03:35:34.631Z,22.60
2018-03-25T03:38:02.913Z,22.56
2018-03-25T03:40:31.217Z,23.16
2018-03-25T03:42:59.465Z,22.06
2018-03-25T03:45:27.725Z,22.04
2018-03-25T03:47:55.230Z,21.50
2018-03-25T03:50:23.478Z,23.92
2018-03-25T03:52:51.771Z,22.92
2018-03-25T03:55:20.078Z,21.68
2018-03-25T03:57:48.368Z,21.08
2018-03-25T04:00:16.651Z,23.94
2018-03-25T04:02:45.931Z,21.72
2018-03-25T04:05:14.226Z,22.90
2018-03-25T04:07:42.476Z,21.88
2018-03-25T04:10:10.731Z,24.46
2018-03-25T04:12:39.049Z,20.92
2018-03-25T04:15:07.306Z,22.60
2018-03-25T04:17:35.572Z,19.68
2018-03-25T04:20:03.855Z,23.04
2018-03-25T04:22:32.114Z,22.50
2018-03-25T04:25:03.314Z,21.92
2018-03-25T04:27:31.563Z,23.40
2018-03-25T04:29:59.850Z,21.54
2018-03-25T04:32:28.148Z,22.30
2018-03-25T04:34:56.410Z,22.12
2018-03-25T04:37:24.690Z,20.72
2018-03-25T04:39:52.938Z,22.88
2018-03-25T04:42:21.237Z,23.78
2018-03-25T04:44:49.516Z,21.74
2018-03-25T04:47:17.814Z,20.96
2018-03-25T04:49:47.267Z,20.46
2018-03-25T04:52:15.564Z,20.90
2018-03-25T04:54:43.820Z,22.74
2018-03-25T04:57:12.112Z,21.86
2018-03-25T04:59:40.367Z,19.02
2018-03-25T05:02:08.658Z,21.48
2018-03-25T05:04:36.920Z,21.04
2018-03-25T05:07:05.210Z,23.80
2018-03-25T05:09:33.497Z,22.18
2018-03-25T05:12:01.849Z,21.80
2018-03-25T05:14:30.102Z,22.14
2018-03-25T05:16:58.354Z,21.14
2018-03-25T05:19:26.658Z,20.58
2018-03-25T05:21:54.938Z,20.44
2018-03-25T05:24:23.226Z,19.44
2018-03-25T05:26:50.713Z,19.32
2018-03-25T05:29:19.002Z,19.46
2018-03-25T05:31:47.264Z,21.62
2018-03-25T05:34:15.539Z,23.76
2018-03-25T05:36:43.823Z,21.96
2018-03-25T05:39:12.079Z,20.40
2018-03-25T05:41:40.374Z,23.70
2018-03-25T05:44:08.658Z,22.66
2018-03-25T05:46:36.937Z,21.50
2018-03-25T05:49:05.196Z,22.90
2018-03-25T05:51:33.482Z,22.22
2018-03-25T05:54:00.968Z,21.82
2018-03-25T05:56:29.279Z,20.82
2018-03-25T05:58:57.546Z,21.66
2018-03-25T06:01:25.046Z,21.36
2018-03-25T06:03:53.337Z,20.46
2018-03-25T06:06:21.631Z,20.68
2018-03-25T06:08:49.899Z,21.88
2018-03-25T06:11:18.154Z,23.40
2018-03-25T06:13:47.445Z,20.78
2018-03-25T06:16:16.471Z,22.66
2018-03-25T06:18:45.798Z,21.34
2018-03-25T06:21:14.046Z,20.58
2018-03-25T06:23:42.302Z,19.04
2018-03-25T06:26:10.598Z,20.30
2018-03-25T06:28:38.851Z,21.14
2018-03-25T06:31:07.112Z,20.40
2018-03-25T06:33:35.398Z,20.24
2018-03-25T06:36:03.673Z,20.62
2018-03-25T06:38:31.962Z,22.54
2018-03-25T06:41:00.243Z,23.30
2018-03-25T06:43:28.510Z,21.30
2018-03-25T06:45:56.790Z,23.86
2018-03-25T06:48:25.043Z,22.92
2018-03-25T06:50:53.355Z,22.94
2018-03-25T06:53:21.611Z,24.40
2018-03-25T06:55:49.866Z,23.28
2018-03-25T06:58:18.162Z,23.32
2018-03-25T07:00:47.437Z,23.50
2018-03-25T07:03:16.642Z,24.64
2018-03-25T07:05:45.948Z,25.06
2018-03-25T07:08:14.198Z,25.62
2018-03-25T07:10:42.513Z,26.00
2018-03-25T07:13:10.002Z,25.74
2018-03-25T07:15:38.268Z,26.30
2018-03-25T07:18:06.550Z,24.76
2018-03-25T07:20:34.806Z,25.66
2018-03-25T07:23:03.096Z,27.14
2018-03-25T07:25:31.359Z,26.26
2018-03-25T07:27:59.660Z,25.30
2018-03-25T07:30:27.925Z,26.70
2018-03-25T07:32:56.219Z,29.20
2018-03-25T07:35:24.474Z,27.70
2018-03-25T07:37:52.730Z,26.92
2018-03-25T07:40:21.010Z,27.68
2018-03-25T07:42:50.294Z,25.44
2018-03-25T07:45:18.563Z,25.72
2018-03-25T07:47:46.853Z,23.02
2018-03-25T07:50:16.298Z,23.82
2018-03-25T07:52:44.626Z,21.86
2018-03-25T07:55:12.884Z,22.42
2018-03-25T07:57:41.155Z,19.30
2018-03-25T08:00:09.438Z,18.90
2018-03-25T08:02:37.693Z,18.64
2018-03-25T08:05:05.994Z,18.90
2018-03-25T08:07:34.256Z,18.46
2018-03-25T08:10:02.542Z,18.72
2018-03-25T08:12:30.814Z,19.28
2018-03-25T08:14:59.071Z,20.52
2018-03-25T08:17:27.372Z,18.00
2018-03-25T08:19:55.667Z,21.06
2018-03-25T08:22:23.200Z,20.92
2018-03-25T08:24:51.458Z,20.60
2018-03-25T08:27:19.746Z,19.58
2018-03-25T08:29:47.998Z,19.28
2018-03-25T08:32:17.012Z,20.60
2018-03-25T08:34:46.165Z,20.04
2018-03-25T08:37:15.266Z,20.70
2018-03-25T08:39:43.550Z,18.66
2018-03-25T08:42:11.811Z,19.84
2018-03-25T08:44:40.098Z,18.14
2018-03-25T08:47:08.354Z,18.08
2018-03-25T08:49:36.635Z,19.52
2018-03-25T08:52:04.882Z,20.40
2018-03-25T08:54:33.159Z,20.12
2018-03-25T08:57:04.833Z,20.30
2018-03-25T08:59:33.114Z,19.58
2018-03-25T09:02:01.381Z,19.06
2018-03-25T09:04:29.670Z,18.90
2018-03-25T09:06:57.933Z,20.30
2018-03-25T09:09:26.198Z,18.76
2018-03-25T09:11:54.478Z,19.90
2018-03-25T09:14:22.736Z,18.50
2018-03-25T09:16:51.033Z,22.22
2018-03-25T09:19:19.294Z,23.22
2018-03-25T09:21:46.827Z,19.26
2018-03-25T09:24:16.598Z,19.82
2018-03-25T09:26:45.822Z,22.16
2018-03-25T09:29:14.117Z,19.86
2018-03-25T09:31:42.379Z,19.56
2018-03-25T09:34:10.631Z,19.80
2018-03-25T09:36:38.238Z,19.60
2018-03-25T09:39:06.488Z,20.50
2018-03-25T09:41:34.741Z,20.08
2018-03-25T09:44:03.021Z,20.58
2018-03-25T09:46:31.266Z,20.16
2018-03-25T09:48:59.551Z,20.12
2018-03-25T09:51:27.834Z,18.78
2018-03-25T09:53:56.130Z,20.32
2018-03-25T09:56:24.387Z,19.58
2018-03-25T09:58:52.693Z,19.40
2018-03-25T10:01:26.727Z,17.06
2018-03-25T10:03:55.011Z,18.86
2018-03-25T10:06:23.262Z,19.16
2018-03-25T10:08:51.557Z,19.78
2018-03-25T10:11:19.814Z,18.02
2018-03-25T10:13:48.114Z,17.08
2018-03-25T10:16:17.298Z,19.00
2018-03-25T10:18:45.582Z,18.48
2018-03-25T10:21:14.609Z,15.98
2018-03-25T10:23:42.913Z,18.86
2018-03-25T10:26:11.163Z,17.50
2018-03-25T10:28:39.470Z,16.50
2018-03-25T10:31:07.886Z,16.60
2018-03-25T10:33:36.139Z,19.02
2018-03-25T10:36:04.418Z,17.72
2018-03-25T10:38:32.706Z,18.26
2018-03-25T10:41:01.008Z,19.26
2018-03-25T10:43:29.269Z,18.88
2018-03-25T10:45:57.558Z,18.48
2018-03-25T10:48:25.852Z,17.74
2018-03-25T10:50:54.128Z,20.84
2018-03-25T10:53:22.424Z,18.04
2018-03-25T10:55:50.678Z,19.98
2018-03-25T10:58:18.976Z,21.58
2018-03-25T11:00:47.238Z,17.88
2018-03-25T11:03:15.564Z,15.90
2018-03-25T11:05:43.839Z,17.34
2018-03-25T11:08:12.098Z,16.76
2018-03-25T11:10:41.329Z,18.74
2018-03-25T11:13:09.643Z,18.60
2018-03-25T11:15:38.196Z,16.96
2018-03-25T11:18:06.500Z,17.10
2018-03-25T11:20:34.800Z,15.76
2018-03-25T11:23:11.200Z,16.78
2018-03-25T11:25:39.494Z,16.46
2018-03-25T11:28:07.777Z,15.84
2018-03-25T11:30:36.067Z,16.10
2018-03-25T11:33:04.327Z,18.78
2018-03-25T11:35:32.614Z,16.26
2018-03-25T11:38:01.872Z,16.58
2018-03-25T11:40:30.170Z,16.04
2018-03-25T11:43:03.896Z,16.74
2018-03-25T11:45:32.194Z,15.38
2018-03-25T11:48:11.837Z,15.30
2018-03-25T11:50:40.136Z,17.34
2018-03-25T11:53:10.368Z,14.76
2018-03-25T11:55:45.842Z,13.40
2018-03-25T11:58:14.130Z,15.54
2018-03-25T12:00:42.420Z,14.86
2018-03-25T12:03:10.710Z,16.62
2018-03-25T12:05:41.806Z,17.94
2018-03-25T12:08:10.084Z,18.54
2018-03-25T12:10:38.376Z,19.10
2018-03-25T12:13:06.713Z,19.14
2018-03-25T12:15:35.927Z,19.80
2018-03-25T12:18:04.221Z,20.16
2018-03-25T12:20:33.485Z,21.66
2018-03-25T12:23:01.745Z,19.38
2018-03-25T12:25:30.051Z,17.32
2018-03-25T12:27:57.556Z,18.48
2018-03-25T12:30:25.879Z,15.64
2018-03-25T12:32:54.134Z,20.30
2018-03-25T12:35:23.402Z,19.68
2018-03-25T12:37:51.690Z,19.22
2018-03-25T12:40:20.905Z,20.48
2018-03-25T12:42:49.202Z,20.40
2018-03-25T12:45:17.484Z,20.00
2018-03-25T12:47:46.922Z,18.48
2018-03-25T12:50:16.878Z,18.68
2018-03-25T12:52:46.391Z,18.28
2018-03-25T12:55:14.657Z,18.94
2018-03-25T12:57:42.173Z,18.72
2018-03-25T13:00:12.374Z,18.24
2018-03-25T13:02:40.629Z,16.86
2018-03-25T13:05:08.919Z,16.56
2018-03-25T13:07:36.443Z,17.62
2018-03-25T13:10:09.287Z,18.42
2018-03-25T13:12:37.567Z,20.12
2018-03-25T13:15:11.343Z,20.34
2018-03-25T13:17:39.598Z,19.14
2018-03-25T13:20:13.430Z,18.34
2018-03-25T13:22:40.940Z,19.84
2018-03-25T13:25:15.067Z,20.00
2018-03-25T13:27:43.328Z,21.14
2018-03-25T13:30:11.597Z,20.86
2018-03-25T13:32:39.890Z,21.24
2018-03-25T13:35:08.374Z,21.22
2018-03-25T13:37:36.674Z,19.06
2018-03-25T13:40:04.924Z,21.86
2018-03-25T13:42:33.218Z,20.10
2018-03-25T13:45:04.674Z,23.84
2018-03-25T13:47:32.205Z,27.80
2018-03-25T13:50:07.418Z,27.72
2018-03-25T13:52:35.698Z,25.82
2018-03-25T13:55:10.405Z,26.58
2018-03-25T13:57:38.714Z,27.58
2018-03-25T14:00:07.899Z,26.22
2018-03-25T14:02:36.164Z,25.84
2018-03-25T14:05:12.491Z,26.82
2018-03-25T14:07:59.682Z,27.02
2018-03-25T14:10:27.962Z,26.32
2018-03-25T14:13:08.824Z,24.76
2018-03-25T14:15:37.123Z,23.58
2018-03-25T14:18:05.380Z,25.52
2018-03-25T14:20:33.645Z,24.20
2018-03-25T14:23:02.923Z,26.90
2018-03-25T14:25:31.178Z,26.08
2018-03-25T14:28:01.474Z,25.22
2018-03-25T14:30:29.726Z,28.38
2018-03-25T14:32:57.990Z,25.64
2018-03-25T14:35:26.283Z,27.06
2018-03-25T14:37:54.542Z,26.20
2018-03-25T14:40:23.842Z,24.68
2018-03-25T14:42:52.131Z,26.56
2018-03-25T14:45:20.407Z,25.54
2018-03-25T14:47:48.701Z,24.50
2018-03-25T14:50:17.089Z,24.52
2018-03-25T14:52:45.852Z,25.80
2018-03-25T14:55:14.160Z,27.04
2018-03-25T14:57:46.558Z,25.16
2018-03-25T15:00:15.626Z,25.38
2018-03-25T15:02:47.090Z,24.66
2018-03-25T15:05:15.902Z,23.20
2018-03-25T15:07:47.917Z,23.78
2018-03-25T15:10:17.091Z,22.62
2018-03-25T15:12:45.003Z,23.52
2018-03-25T15:15:13.262Z,23.26
2018-03-25T15:18:00.950Z,22.14
2018-03-25T15:20:29.205Z,21.78
2018-03-25T15:22:57.510Z,21.04
2018-03-25T15:25:25.767Z,22.60
2018-03-25T15:27:54.051Z,19.98
2018-03-25T15:30:22.344Z,21.58
2018-03-25T15:32:50.658Z,19.56
2018-03-25T15:35:18.929Z,19.32
2018-03-25T15:37:47.186Z,19.28
2018-03-25T15:40:16.299Z,21.58
2018-03-25T15:42:45.453Z,21.42
2018-03-25T15:45:13.679Z,20.92
2018-03-25T15:47:41.979Z,19.20
2018-03-25T15:50:10.270Z,18.18
2018-03-25T15:52:38.562Z,19.12
2018-03-25T15:55:06.842Z,18.08
2018-03-25T15:57:35.123Z,18.34
2018-03-25T16:00:03.416Z,16.78
2018-03-25T16:02:31.723Z,17.92
2018-03-25T16:04:59.990Z,18.14
2018-03-25T16:07:28.287Z,19.84
2018-03-25T16:09:56.542Z,20.02
2018-03-25T16:12:24.835Z,18.22
2018-03-25T16:14:52.358Z,18.36
2018-03-25T16:17:24.027Z,17.90
2018-03-25T16:19:52.290Z,18.76
2018-03-25T16:22:20.583Z,19.54
2018-03-25T16:24:48.853Z,18.96
2018-03-25T16:27:17.606Z,21.02
2018-03-25T16:29:46.567Z,17.62
2018-03-25T16:32:15.906Z,17.84
2018-03-25T16:34:44.202Z,18.70
2018-03-25T16:37:12.467Z,21.26
2018-03-25T16:39:40.767Z,18.16
2018-03-25T16:42:09.054Z,17.04
2018-03-25T16:44:37.346Z,17.52
2018-03-25T16:47:05.766Z,17.08
2018-03-25T16:49:34.054Z,19.26
2018-03-25T16:52:02.315Z,19.98
2018-03-25T16:54:30.616Z,17.44
2018-03-25T16:56:58.914Z,18.52
2018-03-25T16:59:27.182Z,20.16
2018-03-25T17:01:55.463Z,19.50
2018-03-25T17:04:23.750Z,18.80
2018-03-25T17:06:52.006Z,20.36
2018-03-25T17:09:20.290Z,20.24
2018-03-25T17:11:48.566Z,18.20
2018-03-25T17:14:19.186Z,19.98
2018-03-25T17:16:46.679Z,18.44
2018-03-25T17:19:15.602Z,19.14
2018-03-25T17:21:43.866Z,18.80
2018-03-25T17:24:12.150Z,17.82
2018-03-25T17:26:39.642Z,17.42
2018-03-25T17:29:07.942Z,17.02
2018-03-25T17:31:36.209Z,16.96
2018-03-25T17:34:04.519Z,17.98
2018-03-25T17:36:32.774Z,17.94
2018-03-25T17:39:01.031Z,19.46
2018-03-25T17:41:28.565Z,18.28
2018-03-25T17:43:56.822Z,16.94
2018-03-25T17:46:25.094Z,18.04
2018-03-25T17:48:53.384Z,18.60
2018-03-25T17:51:21.674Z,18.80
2018-03-25T17:53:49.952Z,19.27
2018-03-25T17:56:18.227Z,17.60
2018-03-25T17:58:47.442Z,21.04
2018-03-25T18:01:15.592Z,18.82
2018-03-25T18:03:43.888Z,18.88
2018-03-25T18:06:11.370Z,19.42
2018-03-25T18:08:39.641Z,20.66
2018-03-25T18:11:07.916Z,20.16
2018-03-25T18:13:36.205Z,21.46
2018-03-25T18:16:04.458Z,26.14
2018-03-25T18:18:32.759Z,23.70
2018-03-25T18:21:01.033Z,25.22
2018-03-25T18:23:29.301Z,24.46
2018-03-25T18:25:57.664Z,24.32
2018-03-25T18:28:25.881Z,24.58
2018-03-25T18:30:54.178Z,24.38
2018-03-25T18:33:22.482Z,23.42
2018-03-25T18:35:50.828Z,25.40
2018-03-25T18:38:19.067Z,24.52
2018-03-25T18:40:47.355Z,25.84
2018-03-25T18:43:15.614Z,25.34
2018-03-25T18:45:43.898Z,23.44
2018-03-25T18:48:12.195Z,24.30
2018-03-25T18:50:40.442Z,25.68
2018-03-25T18:53:08.730Z,23.10
2018-03-25T18:55:36.994Z,24.10
2018-03-25T18:58:04.514Z,25.90
2018-03-25T19:00:32.783Z,24.62
2018-03-25T19:03:01.081Z,24.62
2018-03-25T19:05:29.383Z,26.46
2018-03-25T19:07:57.654Z,23.64
2018-03-25T19:10:25.954Z,25.34
2018-03-25T19:12:54.211Z,23.52
2018-03-25T19:15:22.498Z,25.32
2018-03-25T19:17:50.751Z,23.96
2018-03-25T19:20:19.046Z,25.02
2018-03-25T19:22:47.334Z,25.70
2018-03-25T19:25:16.022Z,26.60
2018-03-25T19:27:45.507Z,25.16
2018-03-25T19:30:13.803Z,26.62
2018-03-25T19:32:42.068Z,24.84
2018-03-25T19:35:10.372Z,25.66
2018-03-25T19:37:38.667Z,25.56
2018-03-25T19:40:06.918Z,25.64
2018-03-25T19:42:35.176Z,25.08
2018-03-25T19:45:03.462Z,24.98
2018-03-25T19:47:31.719Z,24.92
2018-03-25T19:50:00.006Z,25.34
2018-03-25T19:52:27.498Z,30.56
2018-03-25T19:54:55.793Z,25.98
2018-03-25T19:57:24.063Z,25.10
2018-03-25T19:59:52.370Z,25.90
2018-03-25T20:02:20.629Z,24.84
2018-03-25T20:04:48.156Z,23.42
2018-03-25T20:07:17.052Z,25.64
2018-03-25T20:09:46.054Z,24.90
2018-03-25T20:12:15.468Z,25.44
2018-03-25T20:14:43.744Z,24.14
2018-03-25T20:17:12.053Z,23.34
2018-03-25T20:19:40.318Z,23.06
2018-03-25T20:22:08.606Z,26.82
2018-03-25T20:24:36.101Z,24.96
2018-03-25T20:27:04.376Z,27.00
2018-03-25T20:29:32.691Z,24.28
2018-03-25T20:32:00.942Z,24.16
2018-03-25T20:34:29.190Z,26.24
2018-03-25T20:36:56.715Z,24.38
2018-03-25T20:39:24.971Z,24.12
2018-03-25T20:41:53.264Z,25.60
2018-03-25T20:44:21.536Z,24.22
2018-03-25T20:46:49.814Z,27.12
2018-03-25T20:49:18.062Z,25.08
2018-03-25T20:51:49.830Z,28.76
2018-03-25T20:54:18.090Z,26.54
2018-03-25T20:56:48.395Z,26.34
2018-03-25T20:59:16.688Z,26.88
2018-03-25T21:01:45.874Z,27.66
2018-03-25T21:04:14.158Z,26.76
2018-03-25T21:06:42.415Z,26.24
2018-03-25T21:09:10.707Z,28.90
2018-03-25T21:11:38.966Z,26.08
2018-03-25T21:14:07.265Z,25.34
2018-03-25T21:16:35.541Z,28.64
2018-03-25T21:19:03.841Z,26.92
2018-03-25T21:21:32.099Z,26.78
2018-03-25T21:24:00.396Z,25.96
2018-03-25T21:26:28.665Z,26.70
2018-03-25T21:28:56.991Z,27.40
2018-03-25T21:31:25.257Z,29.60
2018-03-25T21:33:53.507Z,28.46
2018-03-25T21:36:21.807Z,28.82
2018-03-25T21:38:50.074Z,29.80
2018-03-25T21:41:18.354Z,27.88
2018-03-25T21:43:46.597Z,29.54
2018-03-25T21:46:15.922Z,30.30
2018-03-25T21:48:44.173Z,30.08
2018-03-25T21:51:12.551Z,32.46
2018-03-25T21:53:40.805Z,32.84
2018-03-25T21:56:09.058Z,33.26
2018-03-25T21:58:37.349Z,32.38
2018-03-25T22:01:05.607Z,33.04
2018-03-25T22:03:33.112Z,35.76
2018-03-25T22:06:01.390Z,35.16
2018-03-25T22:08:29.649Z,37.82
2018-03-25T22:10:57.931Z,39.14
2018-03-25T22:13:25.442Z,40.72
2018-03-25T22:15:53.737Z,42.90
2018-03-25T22:18:29.787Z,41.98
2018-03-25T22:20:58.068Z,42.48
2018-03-25T22:23:26.324Z,44.98
2018-03-25T22:25:54.606Z,44.32
2018-03-25T22:28:22.873Z,45.72
2018-03-25T22:30:51.156Z,47.80
2018-03-25T22:33:19.442Z,47.74
2018-03-25T22:35:47.705Z,46.06
2018-03-25T22:38:17.124Z,48.40
2018-03-25T22:40:46.418Z,49.28
2018-03-25T22:43:14.731Z,47.56
2018-03-25T22:45:42.218Z,51.68
2018-03-25T22:48:10.506Z,50.60
2018-03-25T22:50:38.762Z,50.64
2018-03-25T22:53:07.041Z,46.14
2018-03-25T22:55:35.294Z,48.60
2018-03-25T22:58:03.581Z,49.12
2018-03-25T23:00:31.826Z,51.36
2018-03-25T23:03:00.088Z,53.96
2018-03-25T23:05:28.400Z,47.58
2018-03-25T23:07:56.654Z,48.12
2018-03-25T23:10:24.902Z,47.20
2018-03-25T23:12:53.192Z,47.78
2018-03-25T23:15:21.442Z,47.38
2018-03-25T23:17:49.760Z,47.72
2018-03-25T23:20:18.018Z,48.36
2018-03-25T23:22:47.503Z,50.44
2018-03-25T23:25:16.654Z,46.02
2018-03-25T23:27:44.146Z,50.48
2018-03-25T23:30:12.430Z,48.00
2018-03-25T23:32:40.725Z,45.02
2018-03-25T23:35:08.981Z,47.66
2018-03-25T23:37:37.281Z,49.14
2018-03-25T23:40:05.526Z,45.40
2018-03-25T23:42:33.783Z,46.74
2018-03-25T23:45:01.310Z,45.02
2018-03-25T23:47:29.563Z,43.16
2018-03-25T23:49:57.814Z,45.00
2018-03-25T23:52:26.116Z,44.88
2018-03-25T23:54:54.370Z,45.32
2018-03-25T23:57:22.636Z,48.58
2018-03-25T23:59:50.934Z,47.30
